Cockrell Hill, Texas
Current Conditions -  °F | °C
As of 10:53 AM on Thursday 30 Oct 2014 (Local Time) from KRBD Reporting Station
Clear Clear  
Wind Chill: 69°   Ceiling: Unl
Heat Index: 69°   Visibility: 10mi
Dew Point: 47°   Wind: 8mph
Humidity: 45%   Direction: 170°S
Pressure: 30.17"   Gusts: NA
Location:  32.7371°N, 96.9045°W
Report Text: KRBD 301553Z 17007KT 10SM CLR 21/08 A3017 RMK AO2 SLP211 T02060083
Loading
Personal Weather Stations






























Interactive Weather Map New forecast layout! Learn more

10-Day Weather Forecast

Advertisements
Track Severe Weather on mobile